Time;durP1;ratioP1;P1;durP2;ratioP2;P2;SDS_P1;SDS_P2;PMS_P1;PMS_P2;Temp;Humidity;BMP_temperature;BMP_pressure;BME280_temperature;BME280_humidity;BME280_pressure;Samples;Min_cycle;Max_cycle;Signal;HPM_P1;HPM_P2
2022/07/22 00:01:06;;;;;;;11.80;7.28;;;;;;;30.17;47.08;101132.84;4930618;29;20052;-81
2022/07/22 00:03:32;;;;;;;7.32;6.47;;;;;;;29.59;46.92;101032.97;4945469;28;20059;-81
2022/07/22 00:05:59;;;;;;;8.40;6.45;;;;;;;29.26;47.54;100985.47;4929762;29;20055;-83
2022/07/22 00:08:26;;;;;;;7.22;5.93;;;;;;;29.99;47.08;101103.03;4945868;29;20110;-82
2022/07/22 00:10:52;;;;;;;14.10;6.28;;;;;;;30.08;47.12;101122.59;4929931;29;20071;-82
2022/07/22 00:13:19;;;;;;;6.93;6.22;;;;;;;29.99;47.00;101098.38;4945568;29;20052;-81
2022/07/22 00:15:45;;;;;;;8.07;5.85;;;;;;;30.21;46.32;101109.31;4929990;29;20048;-79
2022/07/22 00:18:12;;;;;;;9.48;6.78;;;;;;;30.15;46.18;101082.16;4945625;29;20044;-82
2022/07/22 00:20:39;;;;;;;11.48;6.78;;;;;;;30.34;46.35;101116.38;4930735;29;20055;-81
2022/07/22 00:23:05;;;;;;;14.85;6.57;;;;;;;29.99;46.34;101068.25;4930915;29;20527;-80
2022/07/22 00:25:32;;;;;;;12.20;6.80;;;;;;;30.20;46.26;101090.44;4930757;29;20083;-80
2022/07/22 00:27:59;;;;;;;10.70;7.00;;;;;;;30.17;46.25;101099.13;4945461;29;20052;-82
2022/07/22 00:30:26;;;;;;;7.82;6.28;;;;;;;30.28;46.54;101111.91;4917897;29;20079;-81
2022/07/22 00:32:52;;;;;;;8.85;6.05;;;;;;;30.14;46.28;101105.13;4910628;29;20308;-79
2022/07/22 00:35:19;;;;;;;12.60;6.05;;;;;;;30.16;46.70;101119.38;4911911;29;20084;-81
2022/07/22 00:37:46;;;;;;;11.52;6.47;;;;;;;29.60;46.51;101024.50;4910655;29;20056;-80
2022/07/22 00:40:12;;;;;;;10.70;7.20;;;;;;;30.05;46.77;101099.25;4926657;29;20060;-81
2022/07/22 00:42:39;;;;;;;12.88;6.47;;;;;;;29.72;46.85;101065.44;4911630;29;20111;-81
2022/07/22 00:45:07;;;;;;;12.10;5.57;;;;;;;29.81;46.93;101085.00;4926182;29;20102;-80
2022/07/22 00:47:35;;;;;;;12.65;7.25;;;;;;;29.86;46.96;101092.44;4912030;29;20052;-81
2022/07/22 00:50:02;;;;;;;8.70;6.45;;;;;;;29.48;47.28;101059.34;4912472;29;20056;-81
2022/07/22 00:52:30;;;;;;;10.77;6.97;;;;;;;29.73;47.40;101101.84;4910990;29;20311;-80
2022/07/22 00:54:59;;;;;;;9.07;6.22;;;;;;;29.66;47.36;101092.94;4911963;29;20069;-80
2022/07/22 00:57:26;;;;;;;13.02;6.82;;;;;;;29.61;47.38;101074.56;4910201;29;20115;-80
2022/07/22 00:59:53;;;;;;;14.85;7.72;;;;;;;29.82;47.43;101120.31;4925683;29;20044;-82
2022/07/22 01:02:20;;;;;;;9.93;7.40;;;;;;;29.74;47.22;101109.00;4909761;29;20059;-81
2022/07/22 01:04:47;;;;;;;7.97;7.00;;;;;;;29.72;47.29;101114.69;4911432;29;20079;-81
2022/07/22 01:07:14;;;;;;;9.15;6.93;;;;;;;29.74;47.59;101128.16;4909977;29;20119;-81
2022/07/22 01:09:44;;;;;;;12.93;7.07;;;;;;;29.73;47.79;101121.81;4911035;29;20493;-80
2022/07/22 01:12:12;;;;;;;9.02;7.07;;;;;;;29.12;47.67;101017.78;4925561;29;20520;-80
2022/07/22 01:14:38;;;;;;;15.38;7.03;;;;;;;29.69;47.76;101125.34;4925016;29;20484;-80
2022/07/22 01:17:05;;;;;;;11.45;7.65;;;;;;;29.27;47.81;101060.94;4925403;29;20602;-81
2022/07/22 01:19:32;;;;;;;12.80;7.13;;;;;;;29.75;47.73;101121.56;4909581;29;20056;-81
2022/07/22 01:21:58;;;;;;;14.10;6.85;;;;;;;29.73;48.05;101121.81;4909422;29;20044;-82
2022/07/22 01:24:26;;;;;;;12.25;7.38;;;;;;;29.43;47.90;101063.91;4909732;29;20523;-81
2022/07/22 01:26:52;;;;;;;9.23;6.80;;;;;;;29.42;48.17;101087.72;4910993;29;20063;-80
2022/07/22 01:29:19;;;;;;;11.68;7.00;;;;;;;28.85;48.37;101005.84;4915405;29;20076;-80
2022/07/22 01:31:45;;;;;;;13.52;6.25;;;;;;;29.53;48.61;101133.25;4909798;29;20107;-80
2022/07/22 01:34:16;;;;;;;9.25;6.30;;;;;;;29.46;48.83;101127.13;4910631;29;20115;-80
2022/07/22 01:36:43;;;;;;;;;;;;;;;29.36;49.48;101126.97;4912411;29;20077;-81
2022/07/22 01:39:19;;;;;;;10.57;7.30;;;;;;;29.14;49.32;101092.19;4910215;29;19971;-80
2022/07/22 01:41:45;;;;;;;10.15;7.28;;;;;;;28.03;49.27;100919.75;4926135;29;20552;-81
2022/07/22 01:44:12;;;;;;;14.02;8.00;;;;;;;29.34;49.31;101123.66;4911080;29;20062;-78
2022/07/22 01:46:39;;;;;;;12.60;7.22;;;;;;;29.32;49.46;101132.13;4910415;29;20102;-79
2022/07/22 01:49:05;;;;;;;11.68;7.00;;;;;;;28.32;49.31;100978.69;4913765;29;20291;-81
2022/07/22 01:51:32;;;;;;;11.15;7.00;;;;;;;28.93;49.84;101085.53;4920114;29;20064;-80
2022/07/22 01:53:59;;;;;;;8.38;6.15;;;;;;;28.92;49.82;101089.31;4934957;29;20051;-81
2022/07/22 01:56:25;;;;;;;16.83;6.82;;;;;;;28.54;49.44;101005.31;4945729;29;20446;-80
2022/07/22 01:58:52;;;;;;;12.27;7.60;;;;;;;29.20;49.60;101134.09;4944444;29;20063;-80
2022/07/22 02:01:21;;;;;;;12.13;7.07;;;;;;;28.50;49.50;101028.75;4929792;29;20558;-80
2022/07/22 02:03:48;;;;;;;8.13;7.32;;;;;;;29.10;49.45;101128.44;4944034;29;20536;-81
2022/07/22 02:06:14;;;;;;;13.88;7.80;;;;;;;28.37;49.69;101018.91;4928455;29;20067;-80
2022/07/22 02:08:41;;;;;;;12.18;7.45;;;;;;;28.89;49.99;101105.38;4930178;29;20044;-79
2022/07/22 02:11:08;;;;;;;8.50;7.18;;;;;;;28.63;50.34;101079.50;4944003;29;20052;-80
2022/07/22 02:13:35;;;;;;;12.70;7.95;;;;;;;28.87;50.24;101129.41;4930192;29;20052;-81
2022/07/22 02:16:02;;;;;;;13.10;6.32;;;;;;;28.36;50.13;101060.13;4928626;29;20142;-81
2022/07/22 02:18:29;;;;;;;12.25;8.23;;;;;;;28.80;50.50;101117.78;4929522;29;20479;-80
2022/07/22 02:20:55;;;;;;;9.25;7.80;;;;;;;28.77;50.65;101125.41;4944419;29;20048;-80
2022/07/22 02:23:22;;;;;;;12.00;7.97;;;;;;;28.47;50.84;101078.38;4944396;29;20126;-81
2022/07/22 02:25:49;;;;;;;13.07;7.00;;;;;;;28.37;50.69;101061.78;4929587;29;20099;-79
2022/07/22 02:28:15;;;;;;;9.85;7.03;;;;;;;28.43;50.78;101055.34;4930948;29;20113;-80
2022/07/22 02:30:42;;;;;;;14.27;8.70;;;;;;;28.60;50.20;101086.28;4917954;29;20644;-80
2022/07/22 02:33:09;;;;;;;12.13;8.10;;;;;;;28.74;49.20;101104.03;4912883;29;20555;-81
2022/07/22 02:35:35;;;;;;;9.48;7.35;;;;;;;28.82;50.39;101129.31;4912807;29;20063;-81
2022/07/22 02:38:03;;;;;;;12.57;7.60;;;;;;;28.62;50.31;101103.25;4912802;29;20059;-79
2022/07/22 02:40:29;;;;;;;14.68;8.13;;;;;;;28.82;50.20;101127.41;4913080;29;20080;-81
2022/07/22 02:42:56;;;;;;;11.35;7.55;;;;;;;28.45;50.33;101058.63;4912940;29;20059;-80
2022/07/22 02:45:23;;;;;;;11.90;8.85;;;;;;;28.57;50.51;101103.16;4912698;29;20052;-79
2022/07/22 02:47:53;;;;;;;11.13;8.23;;;;;;;28.14;50.69;101038.97;4912907;29;20044;-80
2022/07/22 02:50:21;;;;;;;9.20;7.90;;;;;;;28.51;50.62;101109.59;4913319;29;20052;-80
2022/07/22 02:52:48;;;;;;;8.70;7.63;;;;;;;28.42;50.45;101098.19;4930839;29;20544;-80
2022/07/22 02:55:15;;;;;;;11.55;8.00;;;;;;;28.23;51.09;101078.47;4932879;29;20154;-81
2022/07/22 02:57:42;;;;;;;11.07;8.07;;;;;;;28.29;50.93;101091.13;4931836;29;20044;-81
2022/07/22 03:00:10;;;;;;;11.27;8.18;;;;;;;28.55;50.89;101138.91;4931437;29;20052;-80
2022/07/22 03:02:37;;;;;;;12.43;7.47;;;;;;;28.32;50.33;101101.53;4932529;29;20375;-80
2022/07/22 03:05:06;;;;;;;14.60;9.15;;;;;;;28.38;50.01;101109.88;4931205;29;20337;-80
2022/07/22 03:07:32;;;;;;;10.02;8.40;;;;;;;28.54;49.89;101137.22;4947708;29;20054;-80
2022/07/22 03:09:59;;;;;;;11.95;8.20;;;;;;;28.58;49.93;101125.84;4932841;29;20062;-80
2022/07/22 03:12:28;;;;;;;12.60;8.68;;;;;;;28.52;50.45;101133.09;4931517;29;20079;-80
2022/07/22 03:14:55;;;;;;;11.93;8.35;;;;;;;27.94;50.37;101041.25;4947278;29;20056;-81
2022/07/22 03:17:22;;;;;;;19.20;8.90;;;;;;;28.36;50.74;101117.47;4946667;29;20075;-81
2022/07/22 03:19:48;;;;;;;11.95;7.82;;;;;;;28.13;50.94;101089.16;4945336;29;20452;-79
2022/07/22 03:22:15;;;;;;;10.88;9.05;;;;;;;28.31;51.03;101124.47;4945897;29;20061;-81
2022/07/22 03:24:41;;;;;;;16.88;7.95;;;;;;;28.20;51.71;101108.94;4930162;29;20523;-81
2022/07/22 03:27:08;;;;;;;13.93;7.97;;;;;;;28.18;50.89;101111.09;4945330;29;20051;-81
2022/07/22 03:29:35;;;;;;;16.15;8.60;;;;;;;28.28;51.40;101133.16;4940960;29;20052;-80
2022/07/22 03:32:01;;;;;;;9.88;7.50;;;;;;;28.14;51.23;101120.84;4912583;29;20094;-81
2022/07/22 03:34:28;;;;;;;14.43;8.13;;;;;;;28.33;51.09;101141.44;4911574;29;20052;-80
2022/07/22 03:36:54;;;;;;;16.38;6.80;;;;;;;28.13;51.19;101119.16;4911327;29;20060;-81
2022/07/22 03:39:21;;;;;;;10.40;7.88;;;;;;;27.74;51.53;101053.38;4911033;29;20500;-80
2022/07/22 03:41:48;;;;;;;11.50;8.50;;;;;;;28.24;51.41;101148.34;4912269;29;20052;-79
2022/07/22 03:44:15;;;;;;;8.65;7.85;;;;;;;28.24;51.69;101147.53;4912172;29;20116;-80
2022/07/22 03:46:41;;;;;;;10.55;7.97;;;;;;;28.29;51.40;101164.00;4912569;29;20087;-81
2022/07/22 03:49:08;;;;;;;14.77;8.38;;;;;;;27.75;51.06;101059.69;4926585;29;20472;-80
2022/07/22 03:51:35;;;;;;;10.75;7.50;;;;;;;28.50;50.74;101168.84;4912796;29;20055;-81
2022/07/22 03:54:02;;;;;;;9.80;7.18;;;;;;;27.98;50.47;101081.47;4926862;29;20556;-81
2022/07/22 03:56:28;;;;;;;11.10;7.78;;;;;;;28.44;50.93;101160.75;4932042;29;20062;-79
2022/07/22 03:58:55;;;;;;;11.75;7.93;;;;;;;28.37;50.78;101146.41;4930269;29;20500;-79
2022/07/22 04:01:22;;;;;;;16.05;8.85;;;;;;;28.31;51.34;101170.88;4945386;29;20055;-79
2022/07/22 04:03:49;;;;;;;14.68;8.88;;;;;;;28.28;51.45;101171.38;4945181;29;20223;-80
2022/07/22 04:06:16;;;;;;;9.60;8.50;;;;;;;28.19;51.93;101167.34;4945578;29;20115;-80
2022/07/22 04:08:43;;;;;;;10.80;9.05;;;;;;;27.43;52.02;101055.44;4929672;29;20083;-80
2022/07/22 04:11:10;;;;;;;14.60;9.63;;;;;;;28.07;51.73;101163.81;4930629;29;20051;-80
2022/07/22 04:13:36;;;;;;;9.80;8.50;;;;;;;28.05;52.24;101171.41;4945408;29;20323;-81
2022/07/22 04:16:03;;;;;;;15.30;9.35;;;;;;;27.95;52.36;101163.00;4929940;29;20051;-81
2022/07/22 04:18:31;;;;;;;10.43;9.00;;;;;;;27.96;52.43;101170.91;4929877;29;20382;-79
2022/07/22 04:20:58;;;;;;;8.95;8.18;;;;;;;27.56;52.42;101094.44;4930780;29;20360;-81
2022/07/22 04:23:25;;;;;;;12.68;9.75;;;;;;;27.96;52.13;101140.09;4944825;29;20171;-81
2022/07/22 04:25:52;;;;;;;9.30;8.35;;;;;;;27.44;52.79;101076.16;4929273;29;20130;-81
2022/07/22 04:28:18;;;;;;;12.43;8.57;;;;;;;27.80;52.48;101125.25;4928624;29;20126;-80
2022/07/22 04:30:45;;;;;;;11.90;8.73;;;;;;;28.08;52.39;101155.34;4913407;29;20044;-80
2022/07/22 04:33:12;;;;;;;15.05;8.68;;;;;;;28.12;52.38;101162.00;4909987;29;20539;-80
2022/07/22 04:35:39;;;;;;;13.45;8.35;;;;;;;27.75;52.21;101104.13;4926211;29;20107;-79
2022/07/22 04:38:05;;;;;;;14.18;8.65;;;;;;;28.01;52.44;101151.09;4910567;29;20115;-81
2022/07/22 04:40:32;;;;;;;9.77;8.82;;;;;;;28.16;52.22;101178.75;4910254;29;20070;-80
2022/07/22 04:42:59;;;;;;;10.80;9.45;;;;;;;27.96;52.46;101140.09;4909319;29;20150;-81
2022/07/22 04:45:25;;;;;;;12.65;10.23;;;;;;;28.19;52.45;101172.81;4910160;29;20056;-79
2022/07/22 04:47:52;;;;;;;16.77;10.85;;;;;;;28.20;51.99;101158.06;4909546;29;20067;-78
2022/07/22 04:50:19;;;;;;;13.88;9.73;;;;;;;28.11;52.34;101175.91;4916025;29;20064;-81
2022/07/22 04:52:45;;;;;;;13.88;9.27;;;;;;;27.85;52.34;101130.84;4941170;29;20059;-81
2022/07/22 04:55:15;;;;;;;14.60;9.88;;;;;;;28.10;52.53;101169.59;4965394;29;20043;-82
2022/07/22 04:57:42;;;;;;;14.30;8.60;;;;;;;28.11;53.18;101171.28;4951725;29;20036;-80
2022/07/22 05:00:09;;;;;;;19.83;10.50;;;;;;;27.97;52.81;101150.75;4932035;29;20047;-80
2022/07/22 05:02:36;;;;;;;12.35;10.13;;;;;;;27.84;52.71;101123.72;4930261;29;20381;-80
2022/07/22 05:05:02;;;;;;;19.20;10.35;;;;;;;28.08;53.04;101181.81;4928456;29;20095;-80
2022/07/22 05:07:29;;;;;;;12.05;10.23;;;;;;;27.68;52.50;101106.97;4944192;29;20519;-79
2022/07/22 05:09:56;;;;;;;13.25;9.90;;;;;;;28.20;52.80;101193.56;4943886;29;20051;-80
2022/07/22 05:12:22;;;;;;;19.20;10.30;;;;;;;27.74;52.54;101110.66;4927961;29;20555;-80
2022/07/22 05:14:49;;;;;;;12.25;11.00;;;;;;;28.13;52.53;101166.41;4928786;29;20095;-79
2022/07/22 05:17:16;;;;;;;16.50;9.63;;;;;;;28.25;52.31;101171.81;4922607;29;20052;-80
2022/07/22 05:19:42;;;;;;;16.73;11.00;;;;;;;28.09;52.17;101128.91;4909102;29;20059;-80
2022/07/22 05:22:09;;;;;;;12.68;9.25;;;;;;;28.25;52.00;101146.44;4924562;29;20158;-81
2022/07/22 05:24:35;;;;;;;18.15;10.85;;;;;;;27.43;51.71;101017.25;4908747;29;20064;-80
2022/07/22 05:27:02;;;;;;;16.15;10.63;;;;;;;28.52;51.77;101185.84;4924013;29;20060;-80
2022/07/22 05:29:29;;;;;;;13.10;9.75;;;;;;;27.66;51.67;101038.19;4929701;29;20504;-80
2022/07/22 05:31:56;;;;;;;11.18;9.35;;;;;;;28.67;51.56;101190.78;4909301;29;20493;-80
2022/07/22 05:34:23;;;;;;;11.90;10.05;;;;;;;28.70;51.36;101190.28;4908579;29;20093;-81
2022/07/22 05:36:50;;;;;;;20.05;10.10;;;;;;;28.44;51.18;101139.75;4922966;29;20060;-81
2022/07/22 05:39:17;;;;;;;15.57;11.20;;;;;;;28.46;50.79;101139.53;4935330;29;20505;-81
2022/07/22 05:41:43;;;;;;;22.60;11.43;;;;;;;28.79;50.32;101187.16;4909842;29;20382;-81
2022/07/22 05:44:10;;;;;;;18.70;11.90;;;;;;;28.78;50.16;101175.41;4924044;29;20055;-81
2022/07/22 05:46:37;;;;;;;23.42;10.88;;;;;;;28.79;49.58;101176.22;4908965;29;20125;-80
2022/07/22 05:49:04;;;;;;;15.00;10.38;;;;;;;28.94;49.32;101190.19;4909047;29;20143;-78
2022/07/22 05:51:30;;;;;;;13.52;11.82;;;;;;;29.12;48.32;101198.19;4926370;29;20420;-80
2022/07/22 05:53:57;;;;;;;13.85;11.82;;;;;;;28.65;46.75;101121.06;4940452;29;20456;-81
2022/07/22 05:56:23;;;;;;;17.95;11.63;;;;;;;28.77;45.65;101124.56;4931568;29;20048;-80
2022/07/22 05:58:50;;;;;;;11.68;10.32;;;;;;;29.30;44.79;101197.16;4944640;29;20108;-80
2022/07/22 06:01:17;;;;;;;20.95;12.25;;;;;;;29.10;43.68;101145.66;4944753;28;20055;-81
2022/07/22 06:03:44;;;;;;;14.30;9.95;;;;;;;29.47;43.56;101197.19;4931492;29;20408;-81
2022/07/22 06:06:10;;;;;;;12.48;10.88;;;;;;;29.55;43.86;101206.88;4947720;29;20565;-80
2022/07/22 06:08:37;;;;;;;12.05;10.35;;;;;;;29.46;43.15;101165.41;4947672;29;20155;-78
2022/07/22 06:11:04;;;;;;;11.25;10.02;;;;;;;29.55;42.52;101194.03;4931958;29;20279;-79
2022/07/22 06:13:32;;;;;;;16.58;12.10;;;;;;;29.32;42.57;101131.28;4947620;29;20051;-82
2022/07/22 06:16:06;;;;;;;12.65;11.05;;;;;;;29.52;42.28;101171.81;4947650;29;20055;-78
2022/07/22 06:18:32;;;;;;;14.35;11.35;;;;;;;29.51;42.29;101161.94;4947654;29;20062;-80
2022/07/22 06:20:59;;;;;;;12.57;11.27;;;;;;;29.85;41.84;101203.00;4932789;29;20111;-80
2022/07/22 06:23:26;;;;;;;13.25;10.77;;;;;;;29.70;41.83;101159.81;4932803;29;20052;-78
2022/07/22 06:25:52;;;;;;;15.68;11.40;;;;;;;30.06;42.05;101210.44;4947549;28;20063;-80
2022/07/22 06:28:19;;;;;;;16.08;11.85;;;;;;;29.60;41.65;101114.75;4931885;29;20055;-80
2022/07/22 06:30:46;;;;;;;13.88;12.15;;;;;;;29.94;41.46;101164.00;4917327;29;20103;-79
2022/07/22 06:33:13;;;;;;;15.05;10.52;;;;;;;30.27;40.98;101210.72;4913036;29;20055;-80
2022/07/22 06:35:40;;;;;;;11.38;10.27;;;;;;;30.36;40.71;101212.78;4928185;29;20059;-78
2022/07/22 06:38:07;;;;;;;11.40;10.30;;;;;;;30.36;40.73;101212.78;4912446;29;20071;-80
2022/07/22 06:40:34;;;;;;;12.63;10.85;;;;;;;29.94;39.82;101133.06;4912502;29;20123;-81
2022/07/22 06:43:02;;;;;;;10.65;9.52;;;;;;;30.57;39.05;101219.34;4912659;29;20143;-81
2022/07/22 06:45:30;;;;;;;11.15;10.05;;;;;;;30.55;39.22;101227.00;4911962;29;20151;-79
2022/07/22 06:47:57;;;;;;;11.60;10.43;;;;;;;30.59;39.49;101222.69;4912489;29;20048;-79
2022/07/22 06:50:24;;;;;;;11.20;9.70;;;;;;;30.45;38.67;101189.34;4927725;29;20528;-80
2022/07/22 06:52:53;;;;;;;10.93;9.82;;;;;;;30.27;38.59;101156.81;4916218;29;20059;-80
2022/07/22 06:55:21;;;;;;;12.13;10.85;;;;;;;30.63;39.50;101225.72;4931644;29;20143;-80
2022/07/22 06:57:48;;;;;;;13.02;10.40;;;;;;;30.67;38.84;101230.44;4947064;29;20048;-80
2022/07/22 07:00:15;;;;;;;15.02;10.10;;;;;;;30.75;38.21;101236.56;4930786;29;20058;-79
2022/07/22 07:02:42;;;;;;;12.45;9.57;;;;;;;30.77;37.71;101235.22;4930420;29;20558;-79
2022/07/22 07:05:09;;;;;;;11.57;10.52;;;;;;;30.77;37.59;101218.75;4930654;29;20059;-79
2022/07/22 07:07:46;;;;;;;9.35;8.20;;;;;;;30.86;36.03;101211.78;4931231;29;20048;-81
2022/07/22 07:10:15;;;;;;;11.85;9.15;;;;;;;30.82;35.56;101199.63;4946519;29;20051;-79
2022/07/22 07:12:42;;;;;;;10.02;8.48;;;;;;;31.03;35.66;101239.09;4945264;28;20060;-78
2022/07/22 07:15:09;;;;;;;9.23;8.15;;;;;;;30.98;35.58;101238.22;4930737;29;20147;-80
2022/07/22 07:17:56;;;;;;;10.60;8.43;;;;;;;30.09;35.65;101094.13;4944892;29;20059;-78
2022/07/22 07:20:24;;;;;;;8.63;7.85;;;;;;;30.85;35.95;101234.81;4931423;29;20051;-79
2022/07/22 07:22:51;;;;;;;14.18;8.20;;;;;;;31.04;35.85;101231.69;4946778;29;20143;-78
2022/07/22 07:25:18;;;;;;;11.05;8.98;;;;;;;30.39;36.45;101135.59;4946045;29;20048;-79
2022/07/22 07:27:50;;;;;;;15.15;9.80;;;;;;;30.92;36.25;101237.31;4930219;29;20060;-79
2022/07/22 07:30:19;;;;;;;8.65;7.90;;;;;;;31.00;35.81;101228.66;4946171;29;20087;-79
2022/07/22 07:32:45;;;;;;;13.48;9.27;;;;;;;30.60;34.75;101163.22;4946541;29;20052;-80
2022/07/22 07:35:12;;;;;;;9.93;8.13;;;;;;;31.07;34.70;101234.78;4928899;29;20205;-79
2022/07/22 07:37:39;;;;;;;9.10;8.10;;;;;;;30.02;34.26;101037.63;4940206;29;20063;-79
2022/07/22 07:40:06;;;;;;;15.27;8.05;;;;;;;31.02;34.62;101203.72;4938476;29;20067;-80
2022/07/22 07:42:34;;;;;;;11.43;8.07;;;;;;;31.29;34.42;101237.44;4946020;29;20060;-79
2022/07/22 07:45:00;;;;;;;13.88;8.10;;;;;;;31.23;34.12;101227.50;4945501;29;20127;-79
2022/07/22 07:47:27;;;;;;;9.85;8.57;;;;;;;30.94;33.97;101174.03;4946010;29;20084;-79
2022/07/22 07:49:54;;;;;;;9.05;7.25;;;;;;;31.35;33.78;101242.97;4933333;29;20059;-79
2022/07/22 07:52:20;;;;;;;8.43;7.28;;;;;;;31.06;34.40;101191.97;4948342;29;20058;-79
2022/07/22 07:54:48;;;;;;;11.48;8.23;;;;;;;31.35;34.02;101235.56;4928780;29;20112;-79
2022/07/22 07:57:36;;;;;;;12.45;7.05;;;;;;;31.04;33.63;101174.94;4909979;29;20134;-79
2022/07/22 08:00:05;;;;;;;15.82;8.48;;;;;;;30.67;33.84;101112.59;4925640;29;20044;-79
2022/07/22 08:02:37;;;;;;;11.43;7.97;;;;;;;31.52;33.27;101241.78;4910826;29;20070;-80
2022/07/22 08:05:05;;;;;;;9.48;8.10;;;;;;;31.43;33.52;101226.06;4925517;29;20056;-79
2022/07/22 08:07:32;;;;;;;10.88;7.80;;;;;;;31.55;33.47;101234.97;4925657;29;20083;-81
2022/07/22 08:09:58;;;;;;;10.02;8.32;;;;;;;31.68;33.40;101250.19;4909774;29;20472;-81
2022/07/22 08:12:47;;;;;;;13.82;8.00;;;;;;;31.49;33.35;101211.31;4910958;29;20621;-80
2022/07/22 08:15:14;;;;;;;13.88;7.88;;;;;;;31.82;33.61;101256.03;4925348;29;20064;-80
2022/07/22 08:17:42;;;;;;;19.33;8.75;;;;;;;31.84;33.79;101240.13;4924974;29;20056;-80
2022/07/22 08:20:10;;;;;;;13.15;8.40;;;;;;;31.92;33.59;101245.97;4910921;29;20478;-80
2022/07/22 08:22:37;;;;;;;10.93;8.60;;;;;;;32.00;33.64;101257.59;4932126;29;20115;-78
2022/07/22 08:25:05;;;;;;;10.73;8.23;;;;;;;32.07;33.73;101258.19;4943039;28;20090;-79
2022/07/22 08:27:32;;;;;;;12.00;7.82;;;;;;;31.91;33.83;101216.03;4928753;29;20548;-81
2022/07/22 08:29:58;;;;;;;18.00;9.15;;;;;;;32.20;34.06;101256.88;4920260;29;20060;-81
2022/07/22 08:32:25;;;;;;;11.57;7.97;;;;;;;31.65;33.59;101152.72;4907698;29;20436;-80
2022/07/22 08:34:52;;;;;;;14.52;8.30;;;;;;;32.21;34.50;101239.28;4923921;29;20530;-81
2022/07/22 08:37:19;;;;;;;14.73;8.20;;;;;;;32.47;34.06;101246.56;4908503;29;20086;-79
2022/07/22 08:39:46;;;;;;;13.10;8.93;;;;;;;32.39;33.44;101235.28;4909518;29;20116;-81
2022/07/22 08:42:13;;;;;;;88.15;16.60;;;;;;;32.48;33.41;101230.91;4923813;29;20048;-79
2022/07/22 08:44:40;;;;;;;20.52;10.02;;;;;;;31.56;34.06;101088.47;4908313;29;20078;-82
2022/07/22 08:47:07;;;;;;;22.75;9.98;;;;;;;32.54;33.73;101213.41;4909259;29;20052;-85
2022/07/22 08:49:54;;;;;;;9.15;8.23;;;;;;;32.82;33.23;101236.03;4910108;29;20075;-80
2022/07/22 08:52:21;;;;;;;14.27;9.15;;;;;;;32.83;33.11;101248.69;4910049;29;20492;-79
2022/07/22 08:54:52;;;;;;;11.60;8.07;;;;;;;32.83;33.58;101244.00;4928286;29;20054;-79
2022/07/22 08:57:18;;;;;;;14.70;9.15;;;;;;;32.78;33.67;101235.75;4944753;29;20337;-78
2022/07/22 08:59:50;;;;;;;12.05;7.80;;;;;;;32.73;34.01;101200.81;4928992;29;20062;-79
2022/07/22 09:02:19;;;;;;;12.68;8.18;;;;;;;33.05;33.50;101223.75;4944709;29;20060;-79
2022/07/22 09:05:07;;;;;;;14.45;8.60;;;;;;;33.24;32.93;101241.38;4945716;29;20055;-79
2022/07/22 09:07:58;;;;;;;15.85;9.35;;;;;;;33.31;33.04;101239.19;4929952;29;20055;-78
2022/07/22 09:10:32;;;;;;;18.77;8.13;;;;;;;32.71;32.61;101136.22;4929604;29;20146;-80
2022/07/22 09:13:01;;;;;;;13.10;8.90;;;;;;;33.42;32.77;101235.38;4942936;29;20457;-80
2022/07/22 09:15:36;;;;;;;16.38;8.63;;;;;;;33.54;32.55;101243.31;4921563;29;20143;-80
2022/07/22 09:18:04;;;;;;;15.75;9.02;;;;;;;33.17;32.71;101183.06;4937389;29;20068;-80
2022/07/22 09:20:36;;;;;;;15.30;8.73;;;;;;;33.54;32.56;101212.22;4925445;29;20194;-81
2022/07/22 09:23:18;;;;;;;;;;;;;;;33.71;32.06;101245.84;4937100;29;20071;-81
2022/07/22 09:25:45;;;;;;;10.98;7.85;;;;;;;33.22;32.24;101141.78;4946550;29;19923;-79
2022/07/22 09:28:18;;;;;;;14.82;8.85;;;;;;;33.77;32.21;101216.38;4913290;29;20080;-81
2022/07/22 09:30:49;;;;;;;21.05;9.32;;;;;;;33.83;32.23;101234.53;4915153;29;20060;-79
2022/07/22 09:33:20;;;;;;;14.25;8.38;;;;;;;33.82;31.83;101238.41;4926782;29;20091;-80
2022/07/22 09:35:48;;;;;;;10.88;8.55;;;;;;;33.38;31.78;101140.69;4926651;29;20059;-80
2022/07/22 09:38:26;;;;;;;10.65;7.68;;;;;;;32.93;31.63;101051.56;4934137;29;20412;-80
2022/07/22 09:40:53;;;;;;;12.18;8.70;;;;;;;33.83;31.82;101202.31;4933604;29;20090;-78
2022/07/22 09:43:21;;;;;;;10.02;8.23;;;;;;;34.14;31.61;101218.81;4948737;29;20059;-80
2022/07/22 09:45:48;;;;;;;10.10;8.75;;;;;;;34.20;31.85;101214.94;4946068;29;20408;-79
2022/07/22 09:48:17;;;;;;;17.45;15.05;;;;;;;34.05;31.22;101137.81;4929493;29;20059;-81
2022/07/22 09:50:46;;;;;;;11.70;9.73;;;;;;;34.66;30.66;101208.44;4929792;29;20052;-81
2022/07/22 09:53:13;;;;;;;12.32;8.45;;;;;;;34.58;30.72;101198.78;4936212;29;20080;-80
2022/07/22 09:55:40;;;;;;;11.38;8.60;;;;;;;34.79;30.40;101194.03;4935063;29;20051;-79
2022/07/22 09:58:07;;;;;;;22.02;8.45;;;;;;;34.68;30.31;101143.63;4949984;29;20063;-80
2022/07/22 10:00:36;;;;;;;9.07;7.82;;;;;;;34.92;30.38;101162.22;4934720;29;20054;-81
2022/07/22 10:03:05;;;;;;;9.82;8.82;;;;;;;35.13;30.16;101184.19;4947326;29;20084;-80
2022/07/22 10:05:37;;;;;;;12.10;8.98;;;;;;;35.44;29.61;101202.16;4946489;28;20063;-80
2022/07/22 10:08:06;;;;;;;13.05;8.10;;;;;;;35.27;29.95;101165.84;4934780;29;20059;-81
2022/07/22 10:10:35;;;;;;;10.18;7.97;;;;;;;35.46;29.88;101194.38;4934949;29;20052;-80
2022/07/22 10:13:05;;;;;;;8.95;7.90;;;;;;;35.48;29.13;101181.13;4935059;29;20055;-82
2022/07/22 10:15:33;;;;;;;10.07;8.93;;;;;;;35.41;29.67;101172.34;4948891;29;20047;-81
2022/07/22 10:18:06;;;;;;;14.15;10.15;;;;;;;35.27;29.41;101114.25;4949837;29;20058;-80
2022/07/22 10:20:35;;;;;;;10.60;9.13;;;;;;;35.97;28.98;101182.03;4948293;29;20119;-80
2022/07/22 10:23:07;;;;;;;15.25;8.88;;;;;;;36.17;28.07;101181.03;4933124;29;20110;-81
2022/07/22 10:25:59;;;;;;;10.00;9.00;;;;;;;36.47;28.09;101178.97;4932820;29;20055;-81
2022/07/22 10:28:28;;;;;;;12.57;8.60;;;;;;;36.56;28.26;101161.44;4947703;29;20048;-81
2022/07/22 10:31:14;;;;;;;9.90;7.93;;;;;;;36.70;28.02;101178.16;4916018;29;20127;-79
2022/07/22 10:33:41;;;;;;;10.98;8.02;;;;;;;36.94;27.70;101182.75;4912875;29;20056;-80
2022/07/22 10:36:09;;;;;;;12.68;8.57;;;;;;;36.73;27.56;101144.34;4928366;29;20127;-81
2022/07/22 10:38:36;;;;;;;9.90;8.85;;;;;;;36.69;27.40;101110.09;4912763;29;20056;-80
2022/07/22 10:41:07;;;;;;;12.55;9.25;;;;;;;37.19;27.56;101174.09;4912695;29;20048;-80
2022/07/22 10:43:43;;;;;;;12.20;9.02;;;;;;;37.40;27.42;101168.19;4913633;29;20420;-80
2022/07/22 10:46:09;;;;;;;9.85;8.95;;;;;;;36.70;26.95;101067.53;4928072;29;20087;-80
2022/07/22 10:48:36;;;;;;;10.00;9.00;;;;;;;37.65;26.83;101169.72;4912474;29;20087;-80
2022/07/22 10:51:18;;;;;;;11.43;8.52;;;;;;;37.93;26.68;101170.56;4928225;29;20056;-80
2022/07/22 10:53:56;;;;;;;10.35;7.70;;;;;;;37.85;26.76;101119.47;4922192;29;20090;-81
2022/07/22 10:56:25;;;;;;;11.73;7.95;;;;;;;37.93;25.76;101114.31;4947218;29;20496;-80
2022/07/22 10:58:58;;;;;;;11.15;8.82;;;;;;;38.15;26.01;101157.97;4946796;29;20066;-83
2022/07/22 11:01:29;;;;;;;11.30;9.23;;;;;;;38.29;25.91;101144.91;4946757;29;20056;-81
2022/07/22 11:04:08;;;;;;;12.65;9.25;;;;;;;38.52;25.88;101161.63;4932085;29;20516;-80
2022/07/22 11:06:43;;;;;;;15.73;9.77;;;;;;;38.42;25.75;101121.03;4946016;29;20234;-80
2022/07/22 11:09:14;;;;;;;10.55;9.40;;;;;;;38.72;25.73;101146.47;4947146;29;20141;-81
2022/07/22 11:11:44;;;;;;;16.38;9.05;;;;;;;38.24;25.73;101054.34;4931378;29;20056;-82
2022/07/22 11:14:15;;;;;;;;;;;;;;;38.94;24.84;101143.75;4932001;29;20407;-82
2022/07/22 11:16:44;;;;;;;9.90;8.88;;;;;;;39.01;25.59;101134.97;4932746;29;19923;-81
2022/07/22 11:19:11;;;;;;;9.18;8.38;;;;;;;39.23;25.06;101151.63;4931992;29;20066;-79
2022/07/22 11:21:39;;;;;;;13.40;9.55;;;;;;;39.28;25.31;101122.91;4932723;29;20142;-80